sensor_id;sensor_type;location;lat;lon;timestamp;P1;durP1;ratioP1;P2;durP2;ratioP2
5167;SDS011;2603;48.918;8.980;2022-12-20T00:02:00;32.77;;;15.97;;
5167;SDS011;2603;48.918;8.980;2022-12-20T00:04:27;27.93;;;14.63;;
5167;SDS011;2603;48.918;8.980;2022-12-20T00:06:54;32.17;;;15.93;;
5167;SDS011;2603;48.918;8.980;2022-12-20T00:09:23;26.77;;;14.37;;
5167;SDS011;2603;48.918;8.980;2022-12-20T00:11:50;25.00;;;13.60;;
5167;SDS011;2603;48.918;8.980;2022-12-20T00:14:18;27.13;;;14.67;;
5167;SDS011;2603;48.918;8.980;2022-12-20T00:16:45;25.90;;;14.43;;
5167;SDS011;2603;48.918;8.980;2022-12-20T00:19:12;29.67;;;16.10;;
5167;SDS011;2603;48.918;8.980;2022-12-20T00:21:39;25.00;;;14.93;;
5167;SDS011;2603;48.918;8.980;2022-12-20T00:24:06;27.37;;;13.70;;
5167;SDS011;2603;48.918;8.980;2022-12-20T00:26:33;26.70;;;15.40;;
5167;SDS011;2603;48.918;8.980;2022-12-20T00:29:00;24.90;;;13.17;;
5167;SDS011;2603;48.918;8.980;2022-12-20T00:31:29;26.40;;;13.80;;
5167;SDS011;2603;48.918;8.980;2022-12-20T00:33:56;27.30;;;15.97;;
5167;SDS011;2603;48.918;8.980;2022-12-20T00:36:25;27.17;;;16.00;;
5167;SDS011;2603;48.918;8.980;2022-12-20T00:38:54;30.13;;;15.93;;
5167;SDS011;2603;48.918;8.980;2022-12-20T00:41:22;32.03;;;15.80;;
5167;SDS011;2603;48.918;8.980;2022-12-20T00:43:49;33.33;;;17.27;;
5167;SDS011;2603;48.918;8.980;2022-12-20T00:46:17;29.47;;;14.20;;
5167;SDS011;2603;48.918;8.980;2022-12-20T00:48:46;25.03;;;14.93;;
5167;SDS011;2603;48.918;8.980;2022-12-20T00:51:14;26.17;;;14.30;;
5167;SDS011;2603;48.918;8.980;2022-12-20T00:53:42;25.00;;;13.93;;
5167;SDS011;2603;48.918;8.980;2022-12-20T00:56:10;30.73;;;14.40;;
5167;SDS011;2603;48.918;8.980;2022-12-20T00:58:37;27.30;;;15.40;;
5167;SDS011;2603;48.918;8.980;2022-12-20T01:01:06;29.13;;;15.53;;
5167;SDS011;2603;48.918;8.980;2022-12-20T01:03:40;24.77;;;15.27;;
5167;SDS011;2603;48.918;8.980;2022-12-20T01:06:09;31.40;;;17.00;;
5167;SDS011;2603;48.918;8.980;2022-12-20T01:08:36;28.17;;;16.43;;
5167;SDS011;2603;48.918;8.980;2022-12-20T01:11:04;32.37;;;15.30;;
5167;SDS011;2603;48.918;8.980;2022-12-20T01:13:32;30.73;;;15.47;;
5167;SDS011;2603;48.918;8.980;2022-12-20T01:16:02;38.47;;;19.23;;
5167;SDS011;2603;48.918;8.980;2022-12-20T01:18:30;38.10;;;18.67;;
5167;SDS011;2603;48.918;8.980;2022-12-20T01:21:00;35.63;;;17.57;;
5167;SDS011;2603;48.918;8.980;2022-12-20T01:23:29;29.37;;;16.47;;
5167;SDS011;2603;48.918;8.980;2022-12-20T01:25:57;30.00;;;16.77;;
5167;SDS011;2603;48.918;8.980;2022-12-20T01:28:24;32.73;;;17.50;;
5167;SDS011;2603;48.918;8.980;2022-12-20T01:30:51;22.67;;;14.90;;
5167;SDS011;2603;48.918;8.980;2022-12-20T01:33:17;30.97;;;15.70;;
5167;SDS011;2603;48.918;8.980;2022-12-20T01:35:53;28.73;;;15.37;;
5167;SDS011;2603;48.918;8.980;2022-12-20T01:38:20;25.50;;;16.03;;
5167;SDS011;2603;48.918;8.980;2022-12-20T01:40:49;29.80;;;15.33;;
5167;SDS011;2603;48.918;8.980;2022-12-20T01:43:16;26.40;;;15.03;;
5167;SDS011;2603;48.918;8.980;2022-12-20T01:45:43;39.63;;;17.00;;
5167;SDS011;2603;48.918;8.980;2022-12-20T01:48:10;23.93;;;13.33;;
5167;SDS011;2603;48.918;8.980;2022-12-20T01:50:39;31.63;;;16.60;;
5167;SDS011;2603;48.918;8.980;2022-12-20T01:53:06;27.83;;;15.70;;
5167;SDS011;2603;48.918;8.980;2022-12-20T01:55:32;30.40;;;15.80;;
5167;SDS011;2603;48.918;8.980;2022-12-20T01:58:01;31.50;;;15.13;;
5167;SDS011;2603;48.918;8.980;2022-12-20T02:00:29;25.57;;;14.70;;
5167;SDS011;2603;48.918;8.980;2022-12-20T02:02:57;28.83;;;15.23;;
5167;SDS011;2603;48.918;8.980;2022-12-20T02:05:24;30.27;;;14.93;;
5167;SDS011;2603;48.918;8.980;2022-12-20T02:07:52;28.57;;;14.27;;
5167;SDS011;2603;48.918;8.980;2022-12-20T02:10:20;26.20;;;14.40;;
5167;SDS011;2603;48.918;8.980;2022-12-20T02:12:49;26.97;;;14.90;;
5167;SDS011;2603;48.918;8.980;2022-12-20T02:15:23;28.53;;;14.00;;
5167;SDS011;2603;48.918;8.980;2022-12-20T02:18:01;24.97;;;14.47;;
5167;SDS011;2603;48.918;8.980;2022-12-20T02:20:42;25.33;;;15.03;;
5167;SDS011;2603;48.918;8.980;2022-12-20T02:23:28;21.90;;;12.17;;
5167;SDS011;2603;48.918;8.980;2022-12-20T02:26:03;27.00;;;14.40;;
5167;SDS011;2603;48.918;8.980;2022-12-20T02:28:47;26.80;;;14.53;;
5167;SDS011;2603;48.918;8.980;2022-12-20T02:31:23;28.50;;;14.73;;
5167;SDS011;2603;48.918;8.980;2022-12-20T02:33:54;22.43;;;14.60;;
5167;SDS011;2603;48.918;8.980;2022-12-20T02:36:22;22.70;;;13.70;;
5167;SDS011;2603;48.918;8.980;2022-12-20T02:38:51;24.87;;;13.30;;
5167;SDS011;2603;48.918;8.980;2022-12-20T02:41:19;22.47;;;13.87;;
5167;SDS011;2603;48.918;8.980;2022-12-20T02:43:48;27.30;;;14.43;;
5167;SDS011;2603;48.918;8.980;2022-12-20T02:46:35;21.43;;;12.87;;
5167;SDS011;2603;48.918;8.980;2022-12-20T02:49:04;23.40;;;13.33;;
5167;SDS011;2603;48.918;8.980;2022-12-20T02:51:33;24.60;;;11.10;;
5167;SDS011;2603;48.918;8.980;2022-12-20T02:54:01;26.20;;;12.40;;
5167;SDS011;2603;48.918;8.980;2022-12-20T02:56:29;27.70;;;14.47;;
5167;SDS011;2603;48.918;8.980;2022-12-20T02:59:00;34.33;;;13.60;;
5167;SDS011;2603;48.918;8.980;2022-12-20T03:01:29;23.30;;;13.30;;
5167;SDS011;2603;48.918;8.980;2022-12-20T03:03:59;23.80;;;13.07;;
5167;SDS011;2603;48.918;8.980;2022-12-20T03:06:26;26.50;;;13.37;;
5167;SDS011;2603;48.918;8.980;2022-12-20T03:08:54;30.30;;;14.30;;
5167;SDS011;2603;48.918;8.980;2022-12-20T03:11:25;31.10;;;16.07;;
5167;SDS011;2603;48.918;8.980;2022-12-20T03:13:52;27.67;;;14.43;;
5167;SDS011;2603;48.918;8.980;2022-12-20T03:16:18;27.60;;;14.07;;
5167;SDS011;2603;48.918;8.980;2022-12-20T03:18:45;25.20;;;13.87;;
5167;SDS011;2603;48.918;8.980;2022-12-20T03:21:13;19.77;;;12.27;;
5167;SDS011;2603;48.918;8.980;2022-12-20T03:23:40;25.70;;;13.57;;
5167;SDS011;2603;48.918;8.980;2022-12-20T03:26:07;27.17;;;15.10;;
5167;SDS011;2603;48.918;8.980;2022-12-20T03:28:40;22.70;;;13.23;;
5167;SDS011;2603;48.918;8.980;2022-12-20T03:31:08;25.90;;;13.13;;
5167;SDS011;2603;48.918;8.980;2022-12-20T03:33:42;27.17;;;13.13;;
5167;SDS011;2603;48.918;8.980;2022-12-20T03:36:10;28.43;;;14.87;;
5167;SDS011;2603;48.918;8.980;2022-12-20T03:38:39;24.23;;;13.13;;
5167;SDS011;2603;48.918;8.980;2022-12-20T03:41:06;23.83;;;13.80;;
5167;SDS011;2603;48.918;8.980;2022-12-20T03:43:33;24.17;;;13.20;;
5167;SDS011;2603;48.918;8.980;2022-12-20T03:46:00;21.60;;;12.00;;
5167;SDS011;2603;48.918;8.980;2022-12-20T03:48:32;21.13;;;13.00;;
5167;SDS011;2603;48.918;8.980;2022-12-20T03:50:58;32.13;;;17.67;;
5167;SDS011;2603;48.918;8.980;2022-12-20T03:53:25;24.77;;;13.17;;
5167;SDS011;2603;48.918;8.980;2022-12-20T03:55:53;29.30;;;13.30;;
5167;SDS011;2603;48.918;8.980;2022-12-20T03:58:21;26.70;;;14.10;;
5167;SDS011;2603;48.918;8.980;2022-12-20T04:00:48;20.90;;;12.27;;
5167;SDS011;2603;48.918;8.980;2022-12-20T04:03:35;31.70;;;13.83;;
5167;SDS011;2603;48.918;8.980;2022-12-20T04:06:02;25.53;;;13.00;;
5167;SDS011;2603;48.918;8.980;2022-12-20T04:08:30;26.30;;;13.63;;
5167;SDS011;2603;48.918;8.980;2022-12-20T04:10:59;28.43;;;14.80;;
5167;SDS011;2603;48.918;8.980;2022-12-20T04:14:02;27.53;;;13.30;;
5167;SDS011;2603;48.918;8.980;2022-12-20T04:16:29;36.13;;;14.80;;
5167;SDS011;2603;48.918;8.980;2022-12-20T04:18:56;27.20;;;15.30;;
5167;SDS011;2603;48.918;8.980;2022-12-20T04:21:27;27.73;;;15.10;;
5167;SDS011;2603;48.918;8.980;2022-12-20T04:23:56;33.23;;;14.00;;
5167;SDS011;2603;48.918;8.980;2022-12-20T04:26:32;24.77;;;14.17;;
5167;SDS011;2603;48.918;8.980;2022-12-20T04:29:01;27.30;;;14.33;;
5167;SDS011;2603;48.918;8.980;2022-12-20T04:31:27;33.43;;;15.93;;
5167;SDS011;2603;48.918;8.980;2022-12-20T04:33:55;19.80;;;12.03;;
5167;SDS011;2603;48.918;8.980;2022-12-20T04:36:22;27.63;;;13.03;;
5167;SDS011;2603;48.918;8.980;2022-12-20T04:38:50;24.97;;;12.13;;
5167;SDS011;2603;48.918;8.980;2022-12-20T04:41:18;23.37;;;13.60;;
5167;SDS011;2603;48.918;8.980;2022-12-20T04:43:53;26.17;;;13.03;;
5167;SDS011;2603;48.918;8.980;2022-12-20T04:46:23;23.30;;;13.23;;
5167;SDS011;2603;48.918;8.980;2022-12-20T04:48:53;21.40;;;12.30;;
5167;SDS011;2603;48.918;8.980;2022-12-20T04:51:21;24.93;;;13.33;;
5167;SDS011;2603;48.918;8.980;2022-12-20T04:53:48;20.37;;;13.13;;
5167;SDS011;2603;48.918;8.980;2022-12-20T04:56:49;22.23;;;12.20;;
5167;SDS011;2603;48.918;8.980;2022-12-20T04:59:21;20.83;;;11.77;;
5167;SDS011;2603;48.918;8.980;2022-12-20T05:01:51;21.20;;;12.63;;
5167;SDS011;2603;48.918;8.980;2022-12-20T05:04:43;24.40;;;13.60;;
5167;SDS011;2603;48.918;8.980;2022-12-20T05:07:10;23.90;;;12.37;;
5167;SDS011;2603;48.918;8.980;2022-12-20T05:09:40;22.60;;;13.30;;
5167;SDS011;2603;48.918;8.980;2022-12-20T05:12:07;25.20;;;12.97;;
5167;SDS011;2603;48.918;8.980;2022-12-20T05:14:35;23.50;;;12.53;;
5167;SDS011;2603;48.918;8.980;2022-12-20T05:17:02;25.27;;;12.83;;
5167;SDS011;2603;48.918;8.980;2022-12-20T05:19:30;25.03;;;13.07;;
5167;SDS011;2603;48.918;8.980;2022-12-20T05:21:57;25.17;;;13.30;;
5167;SDS011;2603;48.918;8.980;2022-12-20T05:24:53;21.60;;;12.50;;
5167;SDS011;2603;48.918;8.980;2022-12-20T05:27:38;23.50;;;13.43;;
5167;SDS011;2603;48.918;8.980;2022-12-20T05:30:07;22.00;;;13.40;;
5167;SDS011;2603;48.918;8.980;2022-12-20T05:32:35;24.57;;;13.93;;
5167;SDS011;2603;48.918;8.980;2022-12-20T05:35:02;28.73;;;13.00;;
5167;SDS011;2603;48.918;8.980;2022-12-20T05:37:30;24.73;;;12.10;;
5167;SDS011;2603;48.918;8.980;2022-12-20T05:40:05;23.20;;;11.70;;
5167;SDS011;2603;48.918;8.980;2022-12-20T05:42:33;24.10;;;12.40;;
5167;SDS011;2603;48.918;8.980;2022-12-20T05:45:00;20.43;;;13.13;;
5167;SDS011;2603;48.918;8.980;2022-12-20T05:47:30;20.40;;;11.37;;
5167;SDS011;2603;48.918;8.980;2022-12-20T05:50:03;20.33;;;11.50;;
5167;SDS011;2603;48.918;8.980;2022-12-20T05:52:37;22.70;;;12.50;;
5167;SDS011;2603;48.918;8.980;2022-12-20T05:55:05;20.10;;;12.20;;
5167;SDS011;2603;48.918;8.980;2022-12-20T05:57:33;24.10;;;12.20;;
5167;SDS011;2603;48.918;8.980;2022-12-20T06:00:00;22.87;;;12.00;;
5167;SDS011;2603;48.918;8.980;2022-12-20T06:02:31;25.10;;;11.67;;
5167;SDS011;2603;48.918;8.980;2022-12-20T06:05:01;22.87;;;12.40;;
5167;SDS011;2603;48.918;8.980;2022-12-20T06:07:30;27.10;;;14.10;;
5167;SDS011;2603;48.918;8.980;2022-12-20T06:09:58;23.43;;;12.73;;
5167;SDS011;2603;48.918;8.980;2022-12-20T06:12:36;28.87;;;16.07;;
5167;SDS011;2603;48.918;8.980;2022-12-20T06:15:03;29.83;;;13.93;;
5167;SDS011;2603;48.918;8.980;2022-12-20T06:17:33;23.63;;;12.80;;
5167;SDS011;2603;48.918;8.980;2022-12-20T06:20:00;21.30;;;12.93;;
5167;SDS011;2603;48.918;8.980;2022-12-20T06:22:28;22.07;;;12.53;;
5167;SDS011;2603;48.918;8.980;2022-12-20T06:24:56;22.60;;;11.90;;
5167;SDS011;2603;48.918;8.980;2022-12-20T06:27:26;27.10;;;12.37;;
5167;SDS011;2603;48.918;8.980;2022-12-20T06:30:06;37.07;;;14.93;;
5167;SDS011;2603;48.918;8.980;2022-12-20T06:32:48;30.63;;;15.50;;
5167;SDS011;2603;48.918;8.980;2022-12-20T06:35:14;31.27;;;14.27;;
5167;SDS011;2603;48.918;8.980;2022-12-20T06:37:41;31.73;;;12.90;;
5167;SDS011;2603;48.918;8.980;2022-12-20T06:40:08;85.40;;;32.10;;
5167;SDS011;2603;48.918;8.980;2022-12-20T06:42:36;50.17;;;20.93;;
5167;SDS011;2603;48.918;8.980;2022-12-20T06:45:06;38.83;;;17.23;;
5167;SDS011;2603;48.918;8.980;2022-12-20T06:47:34;44.23;;;22.80;;
5167;SDS011;2603;48.918;8.980;2022-12-20T06:50:03;44.47;;;22.70;;
5167;SDS011;2603;48.918;8.980;2022-12-20T06:52:31;31.60;;;16.03;;
5167;SDS011;2603;48.918;8.980;2022-12-20T06:54:58;29.80;;;18.30;;
5167;SDS011;2603;48.918;8.980;2022-12-20T06:57:25;27.63;;;14.03;;
5167;SDS011;2603;48.918;8.980;2022-12-20T06:59:53;29.70;;;14.27;;
5167;SDS011;2603;48.918;8.980;2022-12-20T07:02:19;29.23;;;16.60;;
5167;SDS011;2603;48.918;8.980;2022-12-20T07:04:46;27.17;;;15.90;;
5167;SDS011;2603;48.918;8.980;2022-12-20T07:07:14;29.43;;;17.00;;
5167;SDS011;2603;48.918;8.980;2022-12-20T07:09:41;27.77;;;16.17;;
5167;SDS011;2603;48.918;8.980;2022-12-20T07:12:08;31.73;;;17.30;;
5167;SDS011;2603;48.918;8.980;2022-12-20T07:14:35;34.80;;;18.07;;
5167;SDS011;2603;48.918;8.980;2022-12-20T07:17:03;31.20;;;17.10;;
5167;SDS011;2603;48.918;8.980;2022-12-20T07:19:31;30.07;;;17.17;;
5167;SDS011;2603;48.918;8.980;2022-12-20T07:21:58;29.20;;;16.17;;
5167;SDS011;2603;48.918;8.980;2022-12-20T07:24:26;27.47;;;15.00;;
5167;SDS011;2603;48.918;8.980;2022-12-20T07:26:52;31.57;;;15.20;;
5167;SDS011;2603;48.918;8.980;2022-12-20T07:29:19;30.50;;;15.93;;
5167;SDS011;2603;48.918;8.980;2022-12-20T07:31:46;24.20;;;13.53;;
5167;SDS011;2603;48.918;8.980;2022-12-20T07:34:12;32.57;;;16.50;;
5167;SDS011;2603;48.918;8.980;2022-12-20T07:36:39;26.43;;;15.00;;
5167;SDS011;2603;48.918;8.980;2022-12-20T07:39:05;28.80;;;15.40;;
5167;SDS011;2603;48.918;8.980;2022-12-20T07:41:33;25.63;;;15.50;;
5167;SDS011;2603;48.918;8.980;2022-12-20T07:44:01;33.60;;;16.60;;
5167;SDS011;2603;48.918;8.980;2022-12-20T07:46:27;24.20;;;14.87;;
5167;SDS011;2603;48.918;8.980;2022-12-20T07:48:54;25.83;;;15.00;;
5167;SDS011;2603;48.918;8.980;2022-12-20T07:51:22;26.57;;;13.43;;
5167;SDS011;2603;48.918;8.980;2022-12-20T07:53:51;27.13;;;14.30;;
5167;SDS011;2603;48.918;8.980;2022-12-20T07:56:20;28.73;;;14.03;;
5167;SDS011;2603;48.918;8.980;2022-12-20T07:58:49;26.67;;;14.10;;
5167;SDS011;2603;48.918;8.980;2022-12-20T08:01:20;34.93;;;17.90;;
5167;SDS011;2603;48.918;8.980;2022-12-20T08:03:48;30.63;;;16.57;;
5167;SDS011;2603;48.918;8.980;2022-12-20T08:06:17;52.77;;;25.03;;
5167;SDS011;2603;48.918;8.980;2022-12-20T08:08:45;43.33;;;21.10;;
5167;SDS011;2603;48.918;8.980;2022-12-20T08:11:13;54.53;;;27.80;;
5167;SDS011;2603;48.918;8.980;2022-12-20T08:13:40;51.27;;;26.63;;
5167;SDS011;2603;48.918;8.980;2022-12-20T08:16:08;35.23;;;19.17;;
5167;SDS011;2603;48.918;8.980;2022-12-20T08:18:35;46.63;;;22.10;;
5167;SDS011;2603;48.918;8.980;2022-12-20T08:21:03;42.80;;;20.50;;
5167;SDS011;2603;48.918;8.980;2022-12-20T08:23:30;31.50;;;17.43;;
5167;SDS011;2603;48.918;8.980;2022-12-20T08:25:58;29.57;;;17.13;;
5167;SDS011;2603;48.918;8.980;2022-12-20T08:28:26;29.90;;;15.90;;
5167;SDS011;2603;48.918;8.980;2022-12-20T08:30:58;24.50;;;13.93;;
5167;SDS011;2603;48.918;8.980;2022-12-20T08:33:27;25.50;;;15.67;;
5167;SDS011;2603;48.918;8.980;2022-12-20T08:35:57;29.50;;;14.83;;
5167;SDS011;2603;48.918;8.980;2022-12-20T08:38:25;26.90;;;14.20;;
5167;SDS011;2603;48.918;8.980;2022-12-20T08:40:52;51.33;;;30.83;;
5167;SDS011;2603;48.918;8.980;2022-12-20T08:43:19;24.87;;;14.57;;
5167;SDS011;2603;48.918;8.980;2022-12-20T08:45:50;57.70;;;34.27;;
5167;SDS011;2603;48.918;8.980;2022-12-20T08:48:17;30.63;;;17.50;;
5167;SDS011;2603;48.918;8.980;2022-12-20T08:50:45;25.17;;;12.87;;
5167;SDS011;2603;48.918;8.980;2022-12-20T08:53:12;25.20;;;12.73;;
5167;SDS011;2603;48.918;8.980;2022-12-20T08:55:38;19.67;;;12.37;;
5167;SDS011;2603;48.918;8.980;2022-12-20T08:58:05;22.30;;;12.33;;
5167;SDS011;2603;48.918;8.980;2022-12-20T09:00:32;20.00;;;11.93;;
5167;SDS011;2603;48.918;8.980;2022-12-20T09:02:59;20.97;;;11.93;;
5167;SDS011;2603;48.918;8.980;2022-12-20T09:05:25;21.17;;;11.30;;
5167;SDS011;2603;48.918;8.980;2022-12-20T09:07:53;19.60;;;10.47;;
5167;SDS011;2603;48.918;8.980;2022-12-20T09:10:20;21.17;;;12.70;;
5167;SDS011;2603;48.918;8.980;2022-12-20T09:12:46;21.70;;;12.33;;
5167;SDS011;2603;48.918;8.980;2022-12-20T09:15:13;24.57;;;11.80;;
5167;SDS011;2603;48.918;8.980;2022-12-20T09:17:40;17.37;;;10.33;;
5167;SDS011;2603;48.918;8.980;2022-12-20T09:20:07;14.17;;;8.63;;
5167;SDS011;2603;48.918;8.980;2022-12-20T09:22:34;18.10;;;10.13;;
5167;SDS011;2603;48.918;8.980;2022-12-20T09:25:02;25.43;;;12.20;;
5167;SDS011;2603;48.918;8.980;2022-12-20T09:27:31;19.20;;;10.60;;
5167;SDS011;2603;48.918;8.980;2022-12-20T09:29:57;19.97;;;10.83;;
5167;SDS011;2603;48.918;8.980;2022-12-20T09:32:24;23.03;;;10.93;;
5167;SDS011;2603;48.918;8.980;2022-12-20T09:34:50;17.07;;;10.97;;
5167;SDS011;2603;48.918;8.980;2022-12-20T09:37:17;21.20;;;10.23;;
5167;SDS011;2603;48.918;8.980;2022-12-20T09:39:43;27.17;;;11.23;;
5167;SDS011;2603;48.918;8.980;2022-12-20T09:42:13;17.80;;;9.70;;
5167;SDS011;2603;48.918;8.980;2022-12-20T09:44:40;18.23;;;9.73;;
5167;SDS011;2603;48.918;8.980;2022-12-20T09:47:08;16.10;;;9.37;;
5167;SDS011;2603;48.918;8.980;2022-12-20T09:49:40;18.80;;;10.60;;
5167;SDS011;2603;48.918;8.980;2022-12-20T09:52:14;15.20;;;8.80;;
5167;SDS011;2603;48.918;8.980;2022-12-20T09:54:49;21.80;;;10.63;;
5167;SDS011;2603;48.918;8.980;2022-12-20T09:57:22;18.30;;;9.63;;
5167;SDS011;2603;48.918;8.980;2022-12-20T09:59:54;17.20;;;9.30;;
5167;SDS011;2603;48.918;8.980;2022-12-20T10:02:22;21.73;;;9.70;;
5167;SDS011;2603;48.918;8.980;2022-12-20T10:04:49;16.33;;;8.77;;
5167;SDS011;2603;48.918;8.980;2022-12-20T10:07:19;22.53;;;10.20;;
5167;SDS011;2603;48.918;8.980;2022-12-20T10:09:55;18.40;;;9.93;;
5167;SDS011;2603;48.918;8.980;2022-12-20T10:12:39;16.37;;;10.03;;
5167;SDS011;2603;48.918;8.980;2022-12-20T10:15:16;24.70;;;10.60;;
5167;SDS011;2603;48.918;8.980;2022-12-20T10:17:56;23.63;;;11.80;;
5167;SDS011;2603;48.918;8.980;2022-12-20T10:20:35;21.10;;;9.83;;
5167;SDS011;2603;48.918;8.980;2022-12-20T10:23:08;21.57;;;11.53;;
5167;SDS011;2603;48.918;8.980;2022-12-20T10:25:38;20.43;;;10.90;;
5167;SDS011;2603;48.918;8.980;2022-12-20T10:28:10;17.73;;;9.87;;
5167;SDS011;2603;48.918;8.980;2022-12-20T10:30:39;22.77;;;11.00;;
5167;SDS011;2603;48.918;8.980;2022-12-20T10:33:07;16.80;;;9.60;;
5167;SDS011;2603;48.918;8.980;2022-12-20T10:35:39;17.10;;;9.63;;
5167;SDS011;2603;48.918;8.980;2022-12-20T10:38:08;21.53;;;11.07;;
5167;SDS011;2603;48.918;8.980;2022-12-20T10:40:37;16.07;;;9.70;;
5167;SDS011;2603;48.918;8.980;2022-12-20T10:43:05;16.87;;;9.87;;
5167;SDS011;2603;48.918;8.980;2022-12-20T10:45:34;17.83;;;11.10;;
5167;SDS011;2603;48.918;8.980;2022-12-20T10:48:03;22.57;;;10.00;;
5167;SDS011;2603;48.918;8.980;2022-12-20T10:50:30;23.50;;;10.13;;
5167;SDS011;2603;48.918;8.980;2022-12-20T10:53:02;18.13;;;9.50;;
5167;SDS011;2603;48.918;8.980;2022-12-20T10:55:37;27.83;;;14.93;;
5167;SDS011;2603;48.918;8.980;2022-12-20T10:58:05;23.67;;;12.33;;
5167;SDS011;2603;48.918;8.980;2022-12-20T11:00:40;19.87;;;12.17;;
5167;SDS011;2603;48.918;8.980;2022-12-20T11:03:15;23.63;;;14.40;;
5167;SDS011;2603;48.918;8.980;2022-12-20T11:05:54;23.73;;;12.23;;
5167;SDS011;2603;48.918;8.980;2022-12-20T11:08:22;39.20;;;21.40;;
5167;SDS011;2603;48.918;8.980;2022-12-20T11:10:50;25.23;;;14.50;;
5167;SDS011;2603;48.918;8.980;2022-12-20T11:13:36;22.83;;;12.40;;
5167;SDS011;2603;48.918;8.980;2022-12-20T11:16:05;20.30;;;13.13;;
5167;SDS011;2603;48.918;8.980;2022-12-20T11:18:37;24.00;;;11.70;;
5167;SDS011;2603;48.918;8.980;2022-12-20T11:21:11;21.77;;;11.43;;
5167;SDS011;2603;48.918;8.980;2022-12-20T11:23:43;20.77;;;11.90;;
5167;SDS011;2603;48.918;8.980;2022-12-20T11:26:17;17.27;;;10.30;;
5167;SDS011;2603;48.918;8.980;2022-12-20T11:28:56;22.83;;;11.70;;
5167;SDS011;2603;48.918;8.980;2022-12-20T11:31:36;23.60;;;11.87;;
5167;SDS011;2603;48.918;8.980;2022-12-20T11:34:13;19.57;;;12.43;;
5167;SDS011;2603;48.918;8.980;2022-12-20T11:37:01;23.37;;;10.90;;
5167;SDS011;2603;48.918;8.980;2022-12-20T11:39:34;25.43;;;11.80;;
5167;SDS011;2603;48.918;8.980;2022-12-20T11:42:05;23.83;;;11.63;;
5167;SDS011;2603;48.918;8.980;2022-12-20T11:44:43;17.60;;;10.43;;
5167;SDS011;2603;48.918;8.980;2022-12-20T11:47:23;20.87;;;11.37;;
5167;SDS011;2603;48.918;8.980;2022-12-20T11:50:02;23.57;;;13.90;;
5167;SDS011;2603;48.918;8.980;2022-12-20T11:52:40;23.50;;;12.60;;
5167;SDS011;2603;48.918;8.980;2022-12-20T11:55:14;22.87;;;12.37;;
5167;SDS011;2603;48.918;8.980;2022-12-20T11:57:45;21.27;;;11.13;;
5167;SDS011;2603;48.918;8.980;2022-12-20T12:00:15;20.57;;;10.73;;
5167;SDS011;2603;48.918;8.980;2022-12-20T12:02:45;17.63;;;10.40;;
5167;SDS011;2603;48.918;8.980;2022-12-20T12:05:16;32.27;;;17.43;;
5167;SDS011;2603;48.918;8.980;2022-12-20T12:07:45;21.50;;;13.90;;
5167;SDS011;2603;48.918;8.980;2022-12-20T12:10:15;22.20;;;13.03;;
5167;SDS011;2603;48.918;8.980;2022-12-20T12:12:43;26.30;;;15.70;;
5167;SDS011;2603;48.918;8.980;2022-12-20T12:15:15;28.13;;;14.70;;
5167;SDS011;2603;48.918;8.980;2022-12-20T12:17:49;32.10;;;15.20;;
5167;SDS011;2603;48.918;8.980;2022-12-20T12:20:21;21.10;;;12.60;;
5167;SDS011;2603;48.918;8.980;2022-12-20T12:22:50;21.27;;;11.60;;
5167;SDS011;2603;48.918;8.980;2022-12-20T12:25:20;17.27;;;9.70;;
5167;SDS011;2603;48.918;8.980;2022-12-20T12:27:47;16.80;;;10.23;;
5167;SDS011;2603;48.918;8.980;2022-12-20T12:30:13;13.40;;;9.40;;
5167;SDS011;2603;48.918;8.980;2022-12-20T12:32:42;21.00;;;9.70;;
5167;SDS011;2603;48.918;8.980;2022-12-20T12:38:26;20.77;;;9.40;;
5167;SDS011;2603;48.918;8.980;2022-12-20T12:43:49;15.70;;;9.33;;
5167;SDS011;2603;48.918;8.980;2022-12-20T12:46:17;16.37;;;9.50;;
5167;SDS011;2603;48.918;8.980;2022-12-20T12:48:51;17.80;;;8.60;;
5167;SDS011;2603;48.918;8.980;2022-12-20T12:51:23;17.87;;;9.67;;
5167;SDS011;2603;48.918;8.980;2022-12-20T12:53:52;16.57;;;10.53;;
5167;SDS011;2603;48.918;8.980;2022-12-20T12:56:30;20.87;;;9.93;;
5167;SDS011;2603;48.918;8.980;2022-12-20T12:59:22;15.83;;;8.73;;
5167;SDS011;2603;48.918;8.980;2022-12-20T13:02:25;12.17;;;7.90;;
5167;SDS011;2603;48.918;8.980;2022-12-20T13:08:10;13.47;;;8.50;;
5167;SDS011;2603;48.918;8.980;2022-12-20T13:10:56;22.50;;;9.03;;
5167;SDS011;2603;48.918;8.980;2022-12-20T13:13:24;17.70;;;9.00;;
5167;SDS011;2603;48.918;8.980;2022-12-20T13:16:10;17.93;;;9.10;;
5167;SDS011;2603;48.918;8.980;2022-12-20T13:21:34;26.57;;;11.00;;
5167;SDS011;2603;48.918;8.980;2022-12-20T13:27:24;23.00;;;10.60;;
5167;SDS011;2603;48.918;8.980;2022-12-20T13:29:55;21.60;;;10.93;;
5167;SDS011;2603;48.918;8.980;2022-12-20T13:35:54;17.43;;;9.73;;
5167;SDS011;2603;48.918;8.980;2022-12-20T13:38:36;18.60;;;10.03;;
5167;SDS011;2603;48.918;8.980;2022-12-20T13:41:20;15.13;;;9.53;;
5167;SDS011;2603;48.918;8.980;2022-12-20T13:43:51;18.63;;;9.97;;
5167;SDS011;2603;48.918;8.980;2022-12-20T13:46:19;19.53;;;10.40;;
5167;SDS011;2603;48.918;8.980;2022-12-20T13:48:49;21.80;;;10.97;;
5167;SDS011;2603;48.918;8.980;2022-12-20T13:51:17;25.27;;;10.73;;
5167;SDS011;2603;48.918;8.980;2022-12-20T13:53:48;24.43;;;10.63;;
5167;SDS011;2603;48.918;8.980;2022-12-20T13:56:30;18.53;;;10.07;;
5167;SDS011;2603;48.918;8.980;2022-12-20T13:59:02;19.50;;;11.07;;
5167;SDS011;2603;48.918;8.980;2022-12-20T14:01:31;24.30;;;12.53;;
5167;SDS011;2603;48.918;8.980;2022-12-20T14:04:01;28.33;;;17.53;;
5167;SDS011;2603;48.918;8.980;2022-12-20T14:06:31;23.73;;;10.43;;
5167;SDS011;2603;48.918;8.980;2022-12-20T14:08:58;16.30;;;9.93;;
5167;SDS011;2603;48.918;8.980;2022-12-20T14:11:25;20.80;;;11.27;;
5167;SDS011;2603;48.918;8.980;2022-12-20T14:13:55;13.93;;;9.60;;
5167;SDS011;2603;48.918;8.980;2022-12-20T14:16:23;15.97;;;7.47;;
5167;SDS011;2603;48.918;8.980;2022-12-20T14:18:59;18.27;;;9.70;;
5167;SDS011;2603;48.918;8.980;2022-12-20T14:21:26;14.17;;;8.37;;
5167;SDS011;2603;48.918;8.980;2022-12-20T14:23:54;12.27;;;7.57;;
5167;SDS011;2603;48.918;8.980;2022-12-20T14:26:23;12.80;;;7.57;;
5167;SDS011;2603;48.918;8.980;2022-12-20T14:28:51;16.33;;;8.40;;
5167;SDS011;2603;48.918;8.980;2022-12-20T14:31:24;14.63;;;8.77;;
5167;SDS011;2603;48.918;8.980;2022-12-20T14:33:59;14.63;;;7.90;;
5167;SDS011;2603;48.918;8.980;2022-12-20T14:36:28;12.40;;;7.10;;
5167;SDS011;2603;48.918;8.980;2022-12-20T14:38:56;11.27;;;7.03;;
5167;SDS011;2603;48.918;8.980;2022-12-20T14:41:30;11.80;;;7.50;;
5167;SDS011;2603;48.918;8.980;2022-12-20T14:44:01;15.30;;;8.87;;
5167;SDS011;2603;48.918;8.980;2022-12-20T14:46:30;16.07;;;9.33;;
5167;SDS011;2603;48.918;8.980;2022-12-20T14:49:06;16.90;;;9.03;;
5167;SDS011;2603;48.918;8.980;2022-12-20T14:51:39;13.57;;;8.70;;
5167;SDS011;2603;48.918;8.980;2022-12-20T14:54:05;16.80;;;9.07;;
5167;SDS011;2603;48.918;8.980;2022-12-20T14:56:32;15.77;;;8.57;;
5167;SDS011;2603;48.918;8.980;2022-12-20T14:59:04;16.23;;;8.83;;
5167;SDS011;2603;48.918;8.980;2022-12-20T15:01:33;18.30;;;9.43;;
5167;SDS011;2603;48.918;8.980;2022-12-20T15:04:00;16.00;;;9.47;;
5167;SDS011;2603;48.918;8.980;2022-12-20T15:06:31;15.50;;;8.97;;
5167;SDS011;2603;48.918;8.980;2022-12-20T15:09:00;16.30;;;8.80;;
5167;SDS011;2603;48.918;8.980;2022-12-20T15:11:26;15.93;;;8.13;;
5167;SDS011;2603;48.918;8.980;2022-12-20T15:13:55;19.93;;;9.43;;
5167;SDS011;2603;48.918;8.980;2022-12-20T15:16:23;18.17;;;9.63;;
5167;SDS011;2603;48.918;8.980;2022-12-20T15:18:53;14.37;;;9.07;;
5167;SDS011;2603;48.918;8.980;2022-12-20T15:21:23;20.17;;;8.80;;
5167;SDS011;2603;48.918;8.980;2022-12-20T15:23:52;18.13;;;9.40;;
5167;SDS011;2603;48.918;8.980;2022-12-20T15:26:21;17.30;;;9.63;;
5167;SDS011;2603;48.918;8.980;2022-12-20T15:28:49;16.03;;;9.60;;